createdAt,value
2019-04-05T00:02:14.225Z,6.70
2019-04-05T00:04:42.893Z,6.70
2019-04-05T00:07:30.869Z,6.70
2019-04-05T00:09:59.462Z,6.70
2019-04-05T00:12:28.099Z,6.80
2019-04-05T00:15:16.308Z,6.80
2019-04-05T00:17:44.977Z,6.90
2019-04-05T00:20:15.204Z,6.90
2019-04-05T00:22:44.703Z,6.90
2019-04-05T00:25:15.042Z,6.90
2019-04-05T00:27:43.821Z,6.90
2019-04-05T00:30:13.064Z,7.00
2019-04-05T00:32:41.685Z,7.00
2019-04-05T00:35:10.352Z,6.90
2019-04-05T00:37:58.326Z,6.90
2019-04-05T00:40:26.923Z,7.00
2019-04-05T00:42:56.034Z,7.10
2019-04-05T00:45:28.459Z,6.90
2019-04-05T00:47:55.053Z,6.90
2019-04-05T00:50:43.057Z,7.00
2019-04-05T00:53:11.692Z,6.90
2019-04-05T00:55:40.430Z,6.80
2019-04-05T00:58:09.069Z,6.70
2019-04-05T01:00:37.996Z,6.70
2019-04-05T01:03:25.968Z,6.80
2019-04-05T01:05:54.557Z,6.80
2019-04-05T01:08:23.397Z,6.90
2019-04-05T01:10:52.135Z,6.90
2019-04-05T01:13:20.833Z,6.90
2019-04-05T01:15:49.566Z,6.80
2019-04-05T01:18:37.600Z,6.90
2019-04-05T01:21:07.906Z,6.80
2019-04-05T01:23:36.542Z,6.90
2019-04-05T01:26:05.274Z,6.90
2019-04-05T01:28:34.474Z,6.90
2019-04-05T01:31:03.211Z,6.80
2019-04-05T01:33:31.852Z,6.60
2019-04-05T01:36:00.586Z,6.60
2019-04-05T01:38:29.389Z,6.50
2019-04-05T01:40:59.300Z,6.60
2019-04-05T01:43:28.101Z,6.60
2019-04-05T01:45:57.528Z,6.60
2019-04-05T01:48:27.709Z,6.60
2019-04-05T01:50:56.441Z,6.60
2019-04-05T01:53:25.136Z,6.70
2019-04-05T01:55:53.868Z,6.60
2019-04-05T01:58:22.505Z,6.60
2019-04-05T02:01:10.506Z,6.60
2019-04-05T02:03:39.069Z,6.70
2019-04-05T02:06:07.803Z,6.80
2019-04-05T02:08:37.213Z,6.70
2019-04-05T02:11:05.953Z,6.80
2019-04-05T02:13:34.589Z,6.80
2019-04-05T02:16:06.757Z,6.90
2019-04-05T02:18:33.529Z,6.80
2019-04-05T02:21:02.269Z,6.70
2019-04-05T02:23:50.241Z,6.50
2019-04-05T02:26:18.973Z,6.40
2019-04-05T02:29:06.949Z,6.40
2019-04-05T02:31:35.551Z,6.40
2019-04-05T02:34:04.756Z,6.40
2019-04-05T02:36:33.469Z,6.40
2019-04-05T02:39:02.101Z,6.30
2019-04-05T02:41:31.838Z,6.40
2019-04-05T02:44:01.044Z,6.40
2019-04-05T02:46:31.885Z,6.40
2019-04-05T02:49:20.860Z,6.40
2019-04-05T02:51:49.701Z,6.50
2019-04-05T02:54:37.849Z,6.50
2019-04-05T02:57:07.218Z,6.50
2019-04-05T02:59:55.190Z,6.50
2019-04-05T03:02:24.070Z,6.50
2019-04-05T03:04:54.236Z,6.40
2019-04-05T03:07:23.466Z,6.50
2019-04-05T03:09:52.370Z,6.50
2019-04-05T03:12:21.702Z,6.50
2019-04-05T03:14:51.111Z,6.50
2019-04-05T03:17:21.537Z,6.50
2019-04-05T03:19:52.236Z,6.50
2019-04-05T03:22:22.669Z,6.40
2019-04-05T03:24:51.905Z,6.50
2019-04-05T03:27:23.587Z,6.50
2019-04-05T03:29:53.093Z,6.50
2019-04-05T03:32:22.434Z,6.50
2019-04-05T03:34:51.340Z,6.50
2019-04-05T03:37:20.870Z,6.60
2019-04-05T03:39:49.570Z,6.60
2019-04-05T03:42:18.415Z,6.60
2019-04-05T03:44:48.018Z,6.50
2019-04-05T03:47:16.871Z,6.50
2019-04-05T03:49:46.258Z,6.60
2019-04-05T03:52:15.104Z,6.60
2019-04-05T03:54:44.012Z,6.60
2019-04-05T03:57:32.018Z,6.60
2019-04-05T04:00:00.644Z,6.50
2019-04-05T04:02:29.417Z,6.50
2019-04-05T04:04:58.057Z,6.60
2019-04-05T04:07:26.879Z,6.60
2019-04-05T04:09:55.687Z,6.60
2019-04-05T04:12:43.677Z,6.60
2019-04-05T04:15:15.605Z,6.60
2019-04-05T04:17:45.139Z,6.60
2019-04-05T04:20:34.574Z,6.60
2019-04-05T04:23:04.307Z,6.70
2019-04-05T04:25:33.408Z,6.70
2019-04-05T04:28:02.345Z,6.70
2019-04-05T04:30:31.758Z,6.70
2019-04-05T04:33:01.795Z,6.70
2019-04-05T04:35:30.724Z,6.60
2019-04-05T04:37:59.969Z,6.60
2019-04-05T04:40:29.080Z,6.60
2019-04-05T04:42:58.113Z,6.60
2019-04-05T04:45:26.829Z,6.60
2019-04-05T04:47:55.662Z,6.60
2019-04-05T04:50:24.833Z,6.60
2019-04-05T04:52:53.866Z,6.60
2019-04-05T04:55:41.842Z,6.60
2019-04-05T04:58:10.672Z,6.60
2019-04-05T05:00:39.375Z,6.60
2019-04-05T05:03:08.206Z,6.50
2019-04-05T05:05:56.182Z,6.50
2019-04-05T05:08:24.853Z,6.40
2019-04-05T05:10:53.655Z,6.60
2019-04-05T05:13:23.088Z,6.60
2019-04-05T05:15:52.391Z,6.50
2019-04-05T05:18:21.226Z,6.50
2019-04-05T05:20:50.040Z,6.40
2019-04-05T05:23:18.868Z,6.40
2019-04-05T05:25:47.673Z,6.40
2019-04-05T05:28:16.812Z,6.40
2019-04-05T05:30:45.612Z,6.30
2019-04-05T05:33:14.486Z,6.30
2019-04-05T05:35:44.905Z,6.20
2019-04-05T05:38:18.156Z,6.20
2019-04-05T05:40:48.310Z,6.10
2019-04-05T05:43:18.551Z,6.00
2019-04-05T05:45:51.122Z,6.00
2019-04-05T05:48:24.177Z,6.00
2019-04-05T05:50:53.289Z,6.00
2019-04-05T05:53:26.998Z,6.10
2019-04-05T05:55:59.625Z,6.20
2019-04-05T05:58:28.622Z,6.10
2019-04-05T06:00:58.566Z,6.20
2019-04-05T06:03:27.156Z,6.30
2019-04-05T06:06:04.253Z,6.30
2019-04-05T06:08:29.048Z,6.20
2019-04-05T06:10:56.541Z,6.20
2019-04-05T06:13:25.277Z,6.20
2019-04-05T06:15:53.992Z,6.20
2019-04-05T06:18:24.265Z,6.20
2019-04-05T06:20:52.819Z,6.40
2019-04-05T06:23:33.056Z,6.40
2019-04-05T06:25:51.845Z,6.40
2019-04-05T06:28:20.592Z,6.40
2019-04-05T06:30:49.216Z,6.40
2019-04-05T06:33:30.945Z,6.50
2019-04-05T06:36:12.925Z,6.70
2019-04-05T06:38:41.521Z,6.70
2019-04-05T06:41:10.674Z,6.90
2019-04-05T06:43:58.711Z,6.90
2019-04-05T06:46:27.643Z,6.90
2019-04-05T06:48:56.312Z,7.00
2019-04-05T06:51:25.283Z,7.10
2019-04-05T06:53:53.915Z,7.10
2019-04-05T06:56:22.477Z,7.10
2019-04-05T06:59:03.122Z,7.20
2019-04-05T07:01:31.722Z,7.30
2019-04-05T07:04:00.394Z,7.30
2019-04-05T07:06:30.913Z,7.40
2019-04-05T07:08:59.706Z,7.50
2019-04-05T07:11:28.557Z,7.60
2019-04-05T07:13:57.237Z,7.50
2019-04-05T07:16:26.093Z,7.60
2019-04-05T07:19:14.146Z,7.70
2019-04-05T07:21:42.862Z,7.80
2019-04-05T07:24:11.543Z,7.80
2019-04-05T07:26:40.175Z,7.90
2019-04-05T07:29:28.427Z,7.90
2019-04-05T07:31:57.078Z,7.90
2019-04-05T07:34:25.813Z,7.80
2019-04-05T07:36:54.384Z,7.70
2019-04-05T07:39:23.057Z,7.90
2019-04-05T07:41:51.768Z,8.10
2019-04-05T07:44:20.831Z,8.30
2019-04-05T07:46:49.595Z,8.40
2019-04-05T07:49:37.637Z,8.40
2019-04-05T07:52:06.271Z,8.40
2019-04-05T07:54:54.283Z,8.50
2019-04-05T07:57:22.922Z,8.60
2019-04-05T07:59:51.537Z,8.70
2019-04-05T08:02:41.069Z,8.90
2019-04-05T08:05:16.473Z,8.80
2019-04-05T08:07:48.371Z,8.90
2019-04-05T08:10:17.137Z,8.90
2019-04-05T08:12:47.683Z,8.90
2019-04-05T08:15:16.361Z,9.00
2019-04-05T08:18:04.382Z,9.20
2019-04-05T08:20:52.382Z,9.40
2019-04-05T08:23:20.949Z,9.70
2019-04-05T08:25:49.616Z,9.90
2019-04-05T08:28:18.189Z,10.10
2019-04-05T08:31:10.574Z,10.00
2019-04-05T08:33:36.705Z,10.10
2019-04-05T08:36:05.680Z,10.20
2019-04-05T08:38:34.313Z,10.10
2019-04-05T08:41:15.443Z,10.20
2019-04-05T08:43:46.952Z,10.10
2019-04-05T08:46:14.967Z,10.20
2019-04-05T08:48:43.669Z,10.30
2019-04-05T08:51:31.672Z,10.50
2019-04-05T08:54:00.278Z,10.70
2019-04-05T08:56:28.914Z,11.00
2019-04-05T08:58:57.476Z,11.20
2019-04-05T09:01:26.143Z,11.40
2019-04-05T09:03:54.782Z,11.50
2019-04-05T09:06:23.445Z,11.50
2019-04-05T09:09:11.454Z,11.60
2019-04-05T09:11:40.093Z,11.90
2019-04-05T09:14:28.029Z,11.80
2019-04-05T09:16:56.608Z,12.00
2019-04-05T09:19:25.218Z,12.00
2019-04-05T09:21:53.844Z,11.80
2019-04-05T09:24:34.667Z,11.20
2019-04-05T09:27:03.367Z,11.10
2019-04-05T09:29:32.032Z,10.80
2019-04-05T09:32:00.682Z,10.80
2019-04-05T09:34:29.359Z,10.60
2019-04-05T09:36:57.921Z,10.30
2019-04-05T09:39:26.602Z,10.10
2019-04-05T09:41:55.285Z,10.10
2019-04-05T09:44:43.294Z,10.10
2019-04-05T09:47:11.938Z,10.10
2019-04-05T09:49:40.600Z,10.10
2019-04-05T09:52:09.236Z,10.30
2019-04-05T09:54:37.904Z,10.60
2019-04-05T09:57:06.475Z,10.70
2019-04-05T09:59:35.148Z,10.70
2019-04-05T10:02:03.785Z,10.60
2019-04-05T10:04:32.521Z,10.40
2019-04-05T10:07:03.978Z,10.20
2019-04-05T10:09:53.431Z,10.20
2019-04-05T10:12:21.998Z,10.10
2019-04-05T10:14:50.703Z,10.00
2019-04-05T10:17:19.444Z,10.00
2019-04-05T10:19:49.990Z,9.80
2019-04-05T10:22:18.324Z,10.00
2019-04-05T10:24:46.893Z,10.00
2019-04-05T10:27:15.569Z,10.20
2019-04-05T10:29:44.160Z,10.30
2019-04-05T10:32:32.169Z,10.30
2019-04-05T10:35:00.767Z,10.40
2019-04-05T10:37:29.477Z,10.60
2019-04-05T10:39:58.149Z,10.80
2019-04-05T10:42:34.475Z,10.80
2019-04-05T10:45:08.058Z,10.90
2019-04-05T10:47:37.004Z,11.30
2019-04-05T10:50:08.342Z,11.50
2019-04-05T10:52:39.608Z,11.40
2019-04-05T10:55:09.858Z,11.40
2019-04-05T10:57:38.461Z,11.20
2019-04-05T11:00:10.197Z,10.90
2019-04-05T11:02:38.860Z,10.80
2019-04-05T11:05:07.705Z,10.50
2019-04-05T11:07:37.544Z,10.60
2019-04-05T11:10:09.134Z,10.60
2019-04-05T11:12:37.916Z,10.90
2019-04-05T11:15:07.899Z,10.90
2019-04-05T11:17:36.565Z,10.90
2019-04-05T11:20:28.698Z,10.90
2019-04-05T11:22:57.336Z,10.90
2019-04-05T11:25:25.969Z,10.90
2019-04-05T11:27:54.801Z,11.00
2019-04-05T11:30:41.767Z,11.00
2019-04-05T11:33:10.468Z,11.20
2019-04-05T11:35:39.345Z,11.10
2019-04-05T11:38:08.343Z,10.90
2019-04-05T11:40:37.238Z,10.90
2019-04-05T11:43:05.968Z,10.80
2019-04-05T11:45:36.397Z,10.90
2019-04-05T11:48:06.696Z,10.70
2019-04-05T11:50:35.446Z,10.80
2019-04-05T11:53:04.182Z,10.80
2019-04-05T11:55:32.824Z,10.90
2019-04-05T11:58:01.408Z,11.00
2019-04-05T12:00:31.683Z,11.30
2019-04-05T12:03:04.954Z,11.40
2019-04-05T12:05:33.752Z,11.30
2019-04-05T12:08:02.349Z,11.20
2019-04-05T12:10:32.136Z,11.20
2019-04-05T12:13:00.777Z,11.40
2019-04-05T12:15:48.753Z,11.30
2019-04-05T12:18:19.554Z,11.30
2019-04-05T12:20:55.455Z,11.00
2019-04-05T12:23:18.012Z,11.00
2019-04-05T12:25:46.574Z,11.00
2019-04-05T12:28:15.174Z,11.00
2019-04-05T12:30:46.109Z,11.20
2019-04-05T12:33:15.024Z,11.40
2019-04-05T12:35:45.142Z,11.60
2019-04-05T12:38:27.992Z,11.40
2019-04-05T12:40:45.728Z,11.30
2019-04-05T12:43:14.397Z,11.30
2019-04-05T12:45:44.760Z,11.10
2019-04-05T12:48:32.691Z,11.00
2019-04-05T12:51:01.845Z,11.00
2019-04-05T12:53:31.735Z,11.10
2019-04-05T12:56:00.382Z,11.10
2019-04-05T12:58:29.050Z,11.20
2019-04-05T13:00:57.623Z,11.50
2019-04-05T13:03:26.294Z,11.40
2019-04-05T13:05:57.151Z,11.30
2019-04-05T13:08:25.313Z,11.20
2019-04-05T13:10:55.888Z,11.20
2019-04-05T13:13:26.586Z,11.20
2019-04-05T13:15:54.421Z,11.30
2019-04-05T13:18:25.189Z,11.20
2019-04-05T13:20:53.369Z,11.20
2019-04-05T13:23:21.964Z,11.10
2019-04-05T13:25:51.093Z,11.00
2019-04-05T13:28:19.687Z,10.80
2019-04-05T13:30:49.315Z,10.60
2019-04-05T13:33:19.317Z,10.50
2019-04-05T13:35:47.888Z,10.60
2019-04-05T13:38:36.893Z,10.70
2019-04-05T13:41:05.689Z,10.70
2019-04-05T13:43:34.356Z,10.60
2019-04-05T13:46:03.129Z,10.50
2019-04-05T13:48:31.726Z,10.50
2019-04-05T13:51:27.934Z,10.30
2019-04-05T13:54:10.948Z,10.20
2019-04-05T13:56:41.396Z,10.30
2019-04-05T13:59:09.961Z,10.20
2019-04-05T14:01:38.673Z,10.30
2019-04-05T14:04:07.340Z,10.40
2019-04-05T14:06:55.307Z,10.30
2019-04-05T14:09:23.902Z,10.20
2019-04-05T14:12:11.872Z,9.60
2019-04-05T14:14:41.544Z,9.60
2019-04-05T14:17:11.413Z,9.60
2019-04-05T14:19:41.261Z,9.70
2019-04-05T14:22:09.834Z,9.60
2019-04-05T14:24:38.506Z,9.60
2019-04-05T14:27:07.219Z,9.50
2019-04-05T14:29:35.806Z,9.70
2019-04-05T14:32:19.968Z,9.60
2019-04-05T14:34:34.997Z,9.60
2019-04-05T14:37:03.627Z,9.70
2019-04-05T14:39:51.637Z,9.60
2019-04-05T14:42:20.449Z,9.70
2019-04-05T14:44:49.037Z,9.50
2019-04-05T14:47:19.840Z,9.60
2019-04-05T14:49:47.993Z,9.60
2019-04-05T14:52:16.628Z,9.60
2019-04-05T14:54:45.288Z,9.70
2019-04-05T14:57:13.925Z,9.70
2019-04-05T15:00:01.936Z,9.60
2019-04-05T15:02:30.567Z,9.50
2019-04-05T15:04:59.301Z,9.50
2019-04-05T15:07:28.278Z,9.50
2019-04-05T15:09:56.985Z,9.60
2019-04-05T15:12:28.897Z,9.70
2019-04-05T15:15:15.240Z,9.60
2019-04-05T15:17:48.305Z,9.60
2019-04-05T15:20:34.913Z,9.40
2019-04-05T15:23:03.675Z,9.30
2019-04-05T15:25:32.418Z,9.30
2019-04-05T15:28:00.989Z,9.50
2019-04-05T15:30:29.658Z,9.40
2019-04-05T15:32:59.933Z,9.40
2019-04-05T15:35:28.787Z,9.40
2019-04-05T15:38:01.389Z,9.30
2019-04-05T15:40:47.206Z,9.30
2019-04-05T15:43:15.758Z,9.30
2019-04-05T15:45:44.357Z,9.20
2019-04-05T15:48:12.925Z,9.20
2019-04-05T15:50:41.795Z,9.10
2019-04-05T15:53:11.091Z,9.00
2019-04-05T15:55:39.794Z,9.20
2019-04-05T15:58:08.500Z,9.10
2019-04-05T16:00:44.821Z,9.20
2019-04-05T16:03:14.415Z,9.20
2019-04-05T16:05:44.359Z,9.10
2019-04-05T16:08:14.461Z,8.90
2019-04-05T16:10:45.554Z,9.00
2019-04-05T16:13:13.481Z,9.00
2019-04-05T16:15:42.321Z,9.10
2019-04-05T16:18:30.218Z,9.20
2019-04-05T16:20:58.876Z,9.30
2019-04-05T16:23:27.517Z,9.30
2019-04-05T16:25:56.199Z,9.40
2019-04-05T16:28:24.878Z,9.30
2019-04-05T16:30:53.470Z,9.10
2019-04-05T16:33:22.035Z,9.10
2019-04-05T16:36:10.028Z,9.10
2019-04-05T16:38:58.002Z,9.20
2019-04-05T16:41:26.603Z,9.20
2019-04-05T16:43:55.306Z,9.10
2019-04-05T16:46:23.973Z,9.20
2019-04-05T16:49:11.870Z,9.30
2019-04-05T16:51:40.462Z,9.30
2019-04-05T16:54:09.034Z,9.30
2019-04-05T16:56:37.769Z,9.30
2019-04-05T16:59:07.336Z,9.30
2019-04-05T17:01:35.940Z,9.20
2019-04-05T17:04:04.849Z,9.10
2019-04-05T17:06:52.847Z,9.10
2019-04-05T17:09:21.409Z,8.90
2019-04-05T17:11:50.001Z,8.90
2019-04-05T17:14:18.570Z,8.90
2019-04-05T17:16:47.254Z,8.80
2019-04-05T17:19:15.892Z,8.80
2019-04-05T17:22:03.993Z,8.70
2019-04-05T17:24:32.625Z,8.80
2019-04-05T17:27:01.356Z,8.90
2019-04-05T17:29:29.993Z,8.80
2019-04-05T17:31:58.725Z,8.80
2019-04-05T17:34:27.364Z,8.80
2019-04-05T17:36:56.029Z,8.80
2019-04-05T17:39:24.597Z,8.70
2019-04-05T17:41:53.260Z,8.90
2019-04-05T17:44:21.896Z,8.80
2019-04-05T17:46:50.563Z,8.90
2019-04-05T17:49:38.465Z,8.90
2019-04-05T17:52:26.471Z,8.90
2019-04-05T17:54:55.106Z,8.90
2019-04-05T17:57:43.104Z,8.80
2019-04-05T18:00:15.900Z,8.70
2019-04-05T18:02:44.500Z,8.70
2019-04-05T18:05:32.469Z,8.70
2019-04-05T18:08:01.069Z,8.80
2019-04-05T18:10:29.700Z,8.70
2019-04-05T18:12:58.304Z,8.80
2019-04-05T18:15:52.342Z,8.80
2019-04-05T18:18:16.517Z,8.80
2019-04-05T18:20:45.080Z,8.90
2019-04-05T18:23:33.017Z,8.90
2019-04-05T18:26:01.762Z,9.00
2019-04-05T18:28:30.380Z,8.90
2019-04-05T18:30:59.023Z,8.80
2019-04-05T18:33:27.685Z,8.80
2019-04-05T18:36:15.750Z,8.60
2019-04-05T18:38:44.244Z,8.60
2019-04-05T18:41:32.252Z,8.60
2019-04-05T18:44:00.893Z,8.60
2019-04-05T18:46:48.901Z,8.60
2019-04-05T18:49:17.469Z,8.70
2019-04-05T18:51:46.137Z,8.80
2019-04-05T18:54:14.743Z,8.90
2019-04-05T18:57:02.747Z,8.90
2019-04-05T18:59:31.308Z,8.80
2019-04-05T19:01:59.909Z,8.80
2019-04-05T19:04:28.476Z,8.80
2019-04-05T19:06:57.151Z,8.80
2019-04-05T19:09:45.135Z,8.80
2019-04-05T19:12:13.723Z,8.80
2019-04-05T19:14:42.295Z,8.80
2019-04-05T19:17:22.856Z,8.80
2019-04-05T19:19:41.313Z,8.70
2019-04-05T19:22:09.916Z,8.70
2019-04-05T19:24:38.570Z,8.80
2019-04-05T19:27:07.165Z,8.80
2019-04-05T19:29:35.725Z,8.80
2019-04-05T19:49:55.715Z,8.70
2019-04-05T19:52:24.324Z,8.70
2019-04-05T19:54:52.956Z,8.70
2019-04-05T19:57:21.660Z,8.70
2019-04-05T19:59:50.257Z,8.80
2019-04-05T20:02:18.821Z,8.70
2019-04-05T20:04:47.485Z,8.70
2019-04-05T20:07:16.134Z,8.60
2019-04-05T20:09:44.801Z,8.60
2019-04-05T20:12:13.378Z,8.60
2019-04-05T20:14:41.982Z,8.70
2019-04-05T20:17:10.621Z,8.70
2019-04-05T20:19:39.292Z,8.70
2019-04-05T20:22:07.859Z,8.60
2019-04-05T20:24:36.525Z,8.50
2019-04-05T20:27:05.229Z,8.60
2019-04-05T20:29:33.887Z,8.50
2019-04-05T20:32:02.460Z,8.50
2019-04-05T20:34:31.128Z,8.40
2019-04-05T20:36:59.699Z,8.50
2019-04-05T20:39:47.702Z,8.50
2019-04-05T20:42:35.709Z,8.50
2019-04-05T20:45:05.348Z,8.50
2019-04-05T20:47:33.916Z,8.60
2019-04-05T20:50:02.589Z,8.60
2019-04-05T20:52:31.157Z,8.60
2019-04-05T20:54:59.766Z,8.60
2019-04-05T20:57:28.332Z,8.50
2019-04-05T20:59:57.005Z,8.50
2019-04-05T21:02:25.644Z,8.50
2019-04-05T21:04:54.251Z,8.50
2019-04-05T21:07:22.874Z,8.40
2019-04-05T21:09:51.525Z,8.50
2019-04-05T21:12:20.133Z,8.50
2019-04-05T21:14:48.739Z,8.50
2019-04-05T21:17:17.468Z,8.50
2019-04-05T21:19:46.174Z,8.50
2019-04-05T21:22:14.712Z,8.50
2019-04-05T21:24:43.391Z,8.50
2019-04-05T21:27:12.718Z,8.50
2019-04-05T21:29:41.532Z,8.60
2019-04-05T21:32:10.157Z,8.60
2019-04-05T21:34:38.759Z,8.70
2019-04-05T21:37:07.331Z,8.60
2019-04-05T21:39:36.013Z,8.60
2019-04-05T21:42:04.741Z,8.70
2019-04-05T21:44:52.731Z,8.70
2019-04-05T21:47:21.440Z,8.70
2019-04-05T21:49:50.045Z,8.60
2019-04-05T21:52:18.619Z,8.60
2019-04-05T21:54:47.981Z,8.70
2019-04-05T21:57:18.184Z,8.70
2019-04-05T21:59:46.789Z,8.60
2019-04-05T22:02:34.761Z,8.60
2019-04-05T22:05:04.702Z,8.60
2019-04-05T22:07:33.360Z,8.50
2019-04-05T22:10:01.961Z,8.50
2019-04-05T22:12:30.595Z,8.60
2019-04-05T22:14:59.265Z,8.60
2019-04-05T22:17:27.829Z,8.50
2019-04-05T22:19:56.503Z,8.40
2019-04-05T22:22:27.302Z,8.40
2019-04-05T22:24:59.607Z,8.50
2019-04-05T22:27:27.077Z,8.50
2019-04-05T22:29:55.673Z,8.50
2019-04-05T22:32:24.236Z,8.50
2019-04-05T22:34:52.849Z,8.50
2019-04-05T22:37:21.413Z,8.40
2019-04-05T22:39:50.162Z,8.60
2019-04-05T22:42:18.792Z,8.60
2019-04-05T22:44:47.467Z,8.60
2019-04-05T22:47:35.736Z,8.70
2019-04-05T22:50:06.164Z,8.70
2019-04-05T22:52:34.784Z,8.60
2019-04-05T22:55:11.149Z,8.60
2019-04-05T22:57:33.864Z,8.60
2019-04-05T23:00:02.495Z,8.60
2019-04-05T23:02:31.093Z,8.50
2019-04-05T23:05:00.916Z,8.50
2019-04-05T23:07:29.855Z,8.50
2019-04-05T23:09:58.505Z,8.50
2019-04-05T23:12:46.484Z,8.40
2019-04-05T23:15:15.213Z,8.60
2019-04-05T23:17:43.912Z,8.40
2019-04-05T23:20:31.852Z,8.50
2019-04-05T23:23:00.486Z,8.60
2019-04-05T23:25:29.080Z,8.50
2019-04-05T23:27:57.715Z,8.50
2019-04-05T23:30:27.885Z,8.20
2019-04-05T23:32:56.517Z,8.30
2019-04-05T23:35:25.197Z,8.30
2019-04-05T23:37:53.765Z,8.20
2019-04-05T23:40:22.598Z,8.10
2019-04-05T23:42:51.232Z,8.10
2019-04-05T23:45:19.832Z,8.30
2019-04-05T23:47:48.537Z,8.40
2019-04-05T23:50:17.128Z,8.30
2019-04-05T23:52:45.765Z,8.40
2019-04-05T23:55:14.428Z,8.40
2019-04-05T23:57:43.073Z,8.50
